Latest Weather Observations for St Kilda Harbour RMYS

IDV60901

Issued at 2:01 am EDT Tuesday 3 March 2015 (issued every 10 minutes, with the page automatically refreshed every 10 minutes)

About weather observations | Map of Melbourne area stations | Latest observations for Melbourne area | Other Formats
Station Details ID: 086220 Name: ST KILDA HARBOUR - RMYS Lat: -37.86 Lon: 144.96 Height: 6.4 m
Data from the previous 72 hours. | See also: Recent months for locations in Victoria
Date/Time
EDT
Tmp

°C
App
Tmp
°C
Dew
Point
°C
Rel
Hum
%
Delta-T

°C
Wind Press
QNH
hPa
Press
MSL
hPa
Rain
since
9 am
mm
Dir
 
Spd
km/h
Gust
km/h
Spd
kts
Gust
kts
03/02:00am - - - - - S 13 17 7 9 - - -
03/01:30am - - - - - S 6 9 3 5 - - -
03/01:00am - - - - - SSE 6 9 3 5 - - -
03/12:30am - - - - - NE 2 4 1 2 - - -
03/12:00am - - - - - E 7 9 4 5 - - -
 
Date/Time
EDT
Tmp

°C
App
Tmp
°C
Dew
Point
°C
Rel
Hum
%
Delta-T

°C
Wind Press
QNH
hPa
Press
MSL
hPa
Rain
since
9 am
mm
Dir
 
Spd
km/h
Gust
km/h
Spd
kts
Gust
kts
02/11:30pm - - - - - SE 11 19 6 10 - - -
02/11:00pm - - - - - SE 11 15 6 8 - - -
02/10:30pm - - - - - SE 11 17 6 9 - - -
02/10:00pm - - - - - SE 11 15 6 8 - - -
02/09:30pm - - - - - SE 11 15 6 8 - - -
02/09:00pm - - - - - ESE 11 15 6 8 - - -
02/08:30pm - - - - - SE 13 17 7 9 - - -
02/08:00pm - - - - - SE 15 20 8 11 - - -
02/07:30pm - - - - - SSE 22 26 12 14 - - -
02/07:00pm - - - - - S 19 20 10 11 - - -
02/06:30pm - - - - - S 15 17 8 9 - - -
02/06:00pm - - - - - S 19 20 10 11 - - -
02/05:30pm - - - - - S 17 20 9 11 - - -
02/05:00pm - - - - - S 20 22 11 12 - - -
02/04:30pm - - - - - S 20 24 11 13 - - -
02/04:00pm - - - - - SSW 24 26 13 14 - - -
02/03:30pm - - - - - S 19 22 10 12 - - -
02/03:00pm - - - - - S 19 24 10 13 - - -
02/02:30pm - - - - - S 19 20 10 11 - - -
02/02:00pm - - - - - S 19 22 10 12 - - -
02/01:30pm - - - - - S 19 20 10 11 - - -
02/01:00pm - - - - - S 15 17 8 9 - - -
02/12:30pm - - - - - SSW 9 17 5 9 - - -
02/12:00pm - - - - - SW 11 15 6 8 - - -
02/11:30am - - - - - WNW 4 7 2 4 - - -
02/11:00am - - - - - NE 4 11 2 6 - - -
02/10:30am - - - - - ESE 7 13 4 7 - - -
02/10:00am - - - - - ENE 6 13 3 7 - - -
02/09:30am - - - - - ENE 11 17 6 9 - - -
02/09:00am - - - - - ENE 7 13 4 7 - - -
02/08:30am - - - - - ENE 7 11 4 6 - - -
02/08:00am - - - - - NNE 6 9 3 5 - - -
02/07:30am - - - - - ENE 7 11 4 6 - - -
02/07:00am - - - - - NE 7 9 4 5 - - -
02/06:30am - - - - - N 6 7 3 4 - - -
02/06:00am - - - - - N 6 7 3 4 - - -
02/05:30am - - - - - NE 6 9 3 5 - - -
02/05:00am - - - - - NE 7 11 4 6 - - -
02/04:30am - - - - - N 4 7 2 4 - - -
02/04:00am - - - - - E 9 15 5 8 - - -
02/03:30am - - - - - E 13 19 7 10 - - -
02/03:00am - - - - - E 7 15 4 8 - - -
02/02:30am - - - - - E 11 15 6 8 - - -
02/02:00am - - - - - SSE 11 19 6 10 - - -
02/01:30am - - - - - S 15 20 8 11 - - -
02/01:00am - - - - - SSE 11 22 6 12 - - -
02/12:30am - - - - - S 17 24 9 13 - - -
02/12:00am - - - - - S 20 32 11 17 - - -
 
Date/Time
EDT
Tmp

°C
App
Tmp
°C
Dew
Point
°C
Rel
Hum
%
Delta-T

°C
Wind Press
QNH
hPa
Press
MSL
hPa
Rain
since
9 am
mm
Dir
 
Spd
km/h
Gust
km/h
Spd
kts
Gust
kts
01/11:30pm - - - - - S 22 28 12 15 - - -
01/11:00pm - - - - - S 24 30 13 16 - - -
01/10:30pm - - - - - SSE 22 30 12 16 - - -
01/10:00pm - - - - - SE 22 30 12 16 - - -
01/09:30pm - - - - - SE 20 32 11 17 - - -
01/09:00pm - - - - - SSE 26 33 14 18 - - -
01/08:30pm - - - - - S 30 37 16 20 - - -
01/08:00pm - - - - - S 33 39 18 21 - - -
01/07:30pm - - - - - S 32 39 17 21 - - -
01/07:00pm - - - - - S 30 35 16 19 - - -
01/06:30pm - - - - - S 33 39 18 21 - - -
01/06:00pm - - - - - S 35 46 19 25 - - -
01/05:30pm - - - - - S 35 41 19 22 - - -
01/05:00pm - - - - - S 32 39 17 21 - - -
01/04:30pm - - - - - S 35 43 19 23 - - -
01/04:00pm - - - - - S 35 41 19 22 - - -
01/03:30pm - - - - - S 33 41 18 22 - - -
01/03:00pm - - - - - S 33 41 18 22 - - -
01/02:30pm - - - - - S 32 37 17 20 - - -
01/02:00pm - - - - - S 33 39 18 21 - - -
01/01:30pm - - - - - SSW 30 37 16 20 - - -
01/01:00pm - - - - - SSW 30 35 16 19 - - -
01/12:30pm - - - - - SSW 32 37 17 20 - - -
01/12:00pm - - - - - SSW 32 39 17 21 - - -
01/11:30am - - - - - S 32 37 17 20 - - -
01/11:00am - - - - - SSW 28 37 15 20 - - -
01/10:30am - - - - - SW 24 32 13 17 - - -
01/10:00am - - - - - SW 28 35 15 19 - - -
01/09:30am - - - - - WSW 30 35 16 19 - - -
01/09:00am - - - - - WSW 32 37 17 20 - - -
01/08:30am - - - - - WSW 26 32 14 17 - - -
01/08:00am - - - - - W 24 28 13 15 - - -
01/07:30am - - - - - WSW 24 30 13 16 - - -
01/07:00am - - - - - WSW 28 32 15 17 - - -
01/06:30am - - - - - WSW 32 39 17 21 - - -
01/06:00am - - - - - WSW 30 37 16 20 - - -
01/05:30am - - - - - WSW 32 41 17 22 - - -
01/05:06am - - - - - SW 37 54 20 29 - - -
01/05:00am - - - - - SW 44 54 24 29 - - -
01/04:30am - - - - - SW 41 46 22 25 - - -
01/04:00am - - - - - SW 41 50 22 27 - - -
01/03:30am - - - - - SW 50 63 27 34 - - -
01/03:00am - - - - - SSW 46 56 25 30 - - -
01/02:30am - - - - - SSW 46 54 25 29 - - -
01/02:00am - - - - - SSW 39 52 21 28 - - -
01/01:30am - - - - - SSW 35 43 19 23 - - -
01/01:00am - - - - - WNW 20 28 11 15 - - -
01/12:30am - - - - - N 15 19 8 10 - - -
01/12:00am - - - - - NNE 11 17 6 9 - - -
 
Date/Time
EDT
Tmp

°C
App
Tmp
°C
Dew
Point
°C
Rel
Hum
%
Delta-T

°C
Wind Press
QNH
hPa
Press
MSL
hPa
Rain
since
9 am
mm
Dir
 
Spd
km/h
Gust
km/h
Spd
kts
Gust
kts
28/11:30pm - - - - - NNE 7 11 4 6 - - -
28/11:00pm - - - - - NE 6 9 3 5 - - -
28/10:30pm - - - - - W 11 15 6 8 - - -
28/10:00pm - - - - - SSW 19 22 10 12 - - -
28/09:30pm - - - - - SSW 32 39 17 21 - - -
28/09:03pm - - - - - SW 54 74 29 40 - - -
28/09:00pm - - - - - SW 57 76 31 41 - - -
28/08:54pm - - - - - SW 63 87 34 47 - - -
28/08:30pm - - - - - WSW 69 128 37 69 - - -
28/08:29pm - - - - - SW 65 128 35 69 - - -
28/08:27pm - - - - - SW 56 128 30 69 - - -
28/08:26pm - - - - - SW 50 128 27 69 - - -
28/08:25pm - - - - - SW 41 85 22 46 - - -
28/08:18pm - - - - - NNW 15 44 8 24 - - -
28/08:00pm - - - - - NE 15 24 8 13 - - -
28/07:30pm - - - - - NNE 17 22 9 12 - - -
28/07:00pm - - - - - NNE 19 30 10 16 - - -
28/06:30pm - - - - - N 20 30 11 16 - - -
28/06:00pm - - - - - N 24 37 13 20 - - -
28/05:30pm - - - - - N 22 33 12 18 - - -
28/05:00pm - - - - - NNW 15 22 8 12 - - -
28/04:30pm - - - - - NNE 19 28 10 15 - - -
28/04:00pm - - - - - NNE 19 28 10 15 - - -
28/03:30pm - - - - - N 24 39 13 21 - - -
28/03:00pm - - - - - N 20 32 11 17 - - -
28/02:30pm - - - - - NNE 13 19 7 10 - - -
28/02:00pm - - - - - NNE 17 24 9 13 - - -
28/01:30pm - - - - - N 22 30 12 16 - - -
28/01:00pm - - - - - N 26 41 14 22 - - -
28/12:30pm - - - - - N 22 35 12 19 - - -
28/12:00pm - - - - - N 22 32 12 17 - - -
28/11:30am - - - - - NNE 19 32 10 17 - - -
28/11:00am - - - - - N 17 28 9 15 - - -
28/10:30am - - - - - NNE 19 30 10 16 - - -
28/10:00am - - - - - NE 7 17 4 9 - - -
28/09:30am - - - - - NNE 15 26 8 14 - - -
28/09:00am - - - - - NNE 20 26 11 14 - - -
28/08:30am - - - - - NNE 17 24 9 13 - - -
28/08:00am - - - - - NNE 13 20 7 11 - - -
28/07:30am - - - - - NE 13 20 7 11 - - -
28/07:00am - - - - - NE 9 13 5 7 - - -
28/06:30am - - - - - NNE 6 9 3 5 - - -
28/06:00am - - - - - NW 17 24 9 13 - - -
28/05:30am - - - - - NNE 9 17 5 9 - - -
28/05:00am - - - - - NE 6 9 3 5 - - -
28/04:30am - - - - - ENE 9 15 5 8 - - -
28/04:00am - - - - - ENE 9 13 5 7 - - -
28/03:30am - - - - - ENE 7 11 4 6 - - -
28/03:00am - - - - - E 6 9 3 5 - - -
28/02:30am - - - - - E 9 13 5 7 - - -

Latest Capital City Observations: Canberra | Sydney | Melbourne | Brisbane | Adelaide | Perth | Hobart | Darwin

Other Formats:

Comma delimited format used in spreadsheet applications
http://www.bom.gov.au/fwo/IDV60901/IDV60901.95864.axf

JavaScript Object Notation format (JSON) in row-major order
http://www.bom.gov.au/fwo/IDV60901/IDV60901.95864.json